VGBG weather

Bogra Airport
Bogra, Rajshahi Division, Bangladesh

Public forecast

Using degrees Celsius for public forecast. Weather courtesy of forecast.io.

Closest aviation weather report (METAR) to Bogra Airport

Closest report is Hazrat Shahjalal International Airport, 85.3 nm (157.9 km) SE. Retrieved 2020/02/17 11:30 UTC (27 minutes ago):

VGHS 171130Z 28006KT 3500 HZ NSC 27/14 Q1013 NOSIG

Closest aviation forecast (TAF) to Bogra Airport

Closest forecast is Hazrat Shahjalal International Airport, 85.3 nm (157.9 km) SE. Retrieved 2020/02/17 06:00 UTC (6 hours ago):

TAF VGHS 170500Z 1706/1812 29006KT 2500 HZ NSC BECMG 1708/1710 31006KT 3500 HZ NSC BECMG 1722/1724 00000KT 2500 HZ NSC BECMG 1800/1802 00000KT 1500 BR SCT012 BECMG 1805/1807 28005KT 2500 HZ NSC